Terminal Aerodrome Forecast
Issued by NWS

Home | Current Version | Previous Version | Text Only | Print | Product List | Glossary On
Versions: 1 2 3 4 5 6 7 8 9 10 11 12 13 14 15 16 17 18 19
241
FTUS46 KMFR 231132
TAFRBG
TAF
KRBG 231132Z 2312/2412 VRB02KT P6SM FEW140 BKN220
     FM231400 00000KT P6SM SCT007 BKN120 BKN200
     FM231700 36003KT P6SM BKN120 OVC140
     FM240000 36006KT P6SM FEW100
     FM240800 VRB02KT P6SM SKC=

USA.gov is the U.S. government's official web portal to all federal, state and local government web resources and services.